KHIB

Range Regional Airport

Hibbing, Minnesota, USA
KHIB 181139Z 1812/1912 VRB04KT P6SM SCT200
Issued Valid From Valid To
Jun-18 @ 11:39 UTC
(2 hours ago)
Jun-18 @ 12:00 UTC
(an hour ago)
Jun-19 @ 12:00 UTC
(in 23 hours)
Jun-18 @ 12:00 to Jun-19 @ 12:00
KHIB 181139Z 1812/1912 VRB04KT P6SM SCT200
Wind Visibility Clouds
Variable at 4 knots Greater than 6 miles
  • Scattered at 20,000' AGL
KHIB 181139Z 1812/1912 VRB04KT P6SM SCT200
Issued Jun-18 @ 11:39 UTC
(2 hours ago)
Valid From Jun-18 @ 12:00 UTC
(an hour ago)
Valid To Jun-19 @ 12:00 UTC
(in 23 hours)
Jun-18 @ 12:00 - Jun-19 @ 12:00
Wind Visibility
Variable at 4 knots Greater than 6 miles
Clouds
  • Scattered at 20,000' AGL